createdAt,value
2017-11-11T00:00:01.968Z,2.83
2017-11-11T00:02:30.409Z,1.23
2017-11-11T00:04:59.468Z,1.70
2017-11-11T00:07:28.660Z,1.80
2017-11-11T00:09:57.023Z,1.40
2017-11-11T00:12:25.302Z,1.20
2017-11-11T00:14:53.716Z,1.77
2017-11-11T00:17:22.360Z,1.23
2017-11-11T00:19:51.434Z,1.43
2017-11-11T00:22:19.764Z,1.03
2017-11-11T00:24:48.912Z,1.93
2017-11-11T00:27:17.226Z,1.87
2017-11-11T00:29:45.557Z,1.60
2017-11-11T00:32:14.692Z,1.90
2017-11-11T00:34:43.062Z,0.90
2017-11-11T00:37:11.563Z,1.40
2017-11-11T00:39:39.973Z,1.23
2017-11-11T00:42:09.233Z,1.10
2017-11-11T00:44:37.580Z,1.00
2017-11-11T00:47:06.693Z,1.30
2017-11-11T00:49:35.055Z,1.17
2017-11-11T00:52:04.783Z,1.00
2017-11-11T00:54:33.957Z,1.37
2017-11-11T00:57:02.319Z,1.20
2017-11-11T00:59:31.465Z,0.97
2017-11-11T01:01:59.829Z,1.57
2017-11-11T01:04:28.129Z,1.00
2017-11-11T01:06:56.439Z,1.30
2017-11-11T01:09:25.564Z,1.10
2017-11-11T01:11:53.966Z,1.17
2017-11-11T01:14:22.284Z,1.33
2017-11-11T01:16:50.584Z,1.20
2017-11-11T01:19:19.670Z,1.10
2017-11-11T01:21:47.977Z,1.27
2017-11-11T01:24:16.379Z,1.20
2017-11-11T01:26:44.657Z,1.03
2017-11-11T01:29:12.995Z,1.17
2017-11-11T01:31:41.349Z,1.20
2017-11-11T01:34:09.991Z,1.23
2017-11-11T01:36:38.304Z,1.27
2017-11-11T01:39:06.652Z,1.50
2017-11-11T01:41:34.924Z,0.80
2017-11-11T01:44:03.202Z,1.00
2017-11-11T01:46:31.535Z,1.27
2017-11-11T01:49:00.631Z,1.10
2017-11-11T01:51:29.017Z,0.90
2017-11-11T01:53:57.362Z,1.13
2017-11-11T01:56:25.657Z,1.50
2017-11-11T01:58:53.798Z,0.90
2017-11-11T02:01:22.104Z,1.13
2017-11-11T02:03:51.440Z,0.93
2017-11-11T02:06:20.430Z,0.87
2017-11-11T02:08:48.560Z,1.00
2017-11-11T02:11:16.913Z,1.10
2017-11-11T02:13:45.218Z,1.40
2017-11-11T02:16:14.326Z,1.13
2017-11-11T02:18:42.804Z,1.93
2017-11-11T02:21:11.989Z,1.20
2017-11-11T02:23:41.485Z,1.40
2017-11-11T02:26:12.265Z,1.87
2017-11-11T02:28:40.751Z,1.60
2017-11-11T02:31:09.232Z,2.03
2017-11-11T02:33:37.642Z,2.90
2017-11-11T02:36:05.984Z,1.80
2017-11-11T02:38:35.480Z,1.50
2017-11-11T02:41:03.712Z,1.57
2017-11-11T02:43:31.873Z,1.40
2017-11-11T02:46:00.693Z,1.00
2017-11-11T02:48:29.025Z,1.50
2017-11-11T02:50:57.347Z,1.33
2017-11-11T02:53:25.651Z,1.20
2017-11-11T02:55:54.776Z,1.20
2017-11-11T02:58:23.106Z,1.47
2017-11-11T03:00:51.487Z,1.33
2017-11-11T03:03:19.810Z,1.30
2017-11-11T03:05:48.168Z,1.00
2017-11-11T03:08:16.521Z,1.20
2017-11-11T03:10:44.875Z,1.10
2017-11-11T03:13:13.199Z,1.67
2017-11-11T03:15:41.542Z,1.27
2017-11-11T03:18:09.822Z,1.27
2017-11-11T03:20:38.166Z,1.10
2017-11-11T03:23:06.510Z,1.00
2017-11-11T03:25:34.853Z,0.97
2017-11-11T03:28:03.172Z,0.97
2017-11-11T03:30:32.278Z,0.93
2017-11-11T03:33:00.588Z,2.03
2017-11-11T03:35:28.885Z,1.57
2017-11-11T03:37:57.261Z,1.03
2017-11-11T03:40:26.205Z,1.13
2017-11-11T03:42:54.560Z,1.07
2017-11-11T03:45:22.885Z,1.13
2017-11-11T03:47:51.221Z,0.77
2017-11-11T03:50:19.567Z,1.13
2017-11-11T03:52:47.880Z,1.27
2017-11-11T03:55:16.977Z,0.90
2017-11-11T03:57:45.340Z,1.20
2017-11-11T04:00:14.446Z,1.20
2017-11-11T04:02:42.737Z,1.03
2017-11-11T04:05:11.101Z,1.00
2017-11-11T04:07:39.969Z,1.13
2017-11-11T04:10:08.332Z,0.93
2017-11-11T04:12:36.664Z,1.00
2017-11-11T04:15:05.044Z,0.93
2017-11-11T04:17:33.163Z,1.00
2017-11-11T04:20:01.282Z,1.03
2017-11-11T04:22:29.698Z,0.77
2017-11-11T04:24:58.044Z,0.90
2017-11-11T04:27:26.151Z,1.30
2017-11-11T04:29:54.441Z,1.10
2017-11-11T04:32:23.383Z,1.03
2017-11-11T04:34:51.695Z,1.07
2017-11-11T04:37:20.056Z,1.90
2017-11-11T04:39:48.392Z,1.10
2017-11-11T04:42:16.704Z,0.90
2017-11-11T04:44:45.061Z,0.80
2017-11-11T04:47:13.384Z,1.00
2017-11-11T04:49:41.561Z,0.83
2017-11-11T04:52:09.677Z,1.07
2017-11-11T04:54:37.794Z,1.03
2017-11-11T04:57:05.954Z,0.97
2017-11-11T04:59:34.572Z,1.13
2017-11-11T05:02:02.929Z,1.10
2017-11-11T05:04:31.213Z,0.80
2017-11-11T05:06:59.565Z,1.03
2017-11-11T05:09:28.644Z,0.83
2017-11-11T05:11:56.765Z,0.70
2017-11-11T05:14:24.932Z,1.00
2017-11-11T05:16:53.900Z,1.40
2017-11-11T05:19:22.272Z,1.27
2017-11-11T05:21:50.616Z,1.13
2017-11-11T05:24:18.811Z,0.80
2017-11-11T05:26:47.885Z,1.33
2017-11-11T05:29:16.171Z,1.00
2017-11-11T05:31:44.559Z,1.50
2017-11-11T05:34:12.934Z,1.20
2017-11-11T05:36:41.265Z,1.17
2017-11-11T05:39:09.644Z,1.60
2017-11-11T05:41:38.536Z,1.10
2017-11-11T05:44:06.911Z,1.83
2017-11-11T05:46:35.218Z,0.90
2017-11-11T05:49:03.840Z,1.07
2017-11-11T05:51:32.158Z,2.30
2017-11-11T05:54:00.763Z,0.80
2017-11-11T05:56:29.118Z,1.10
2017-11-11T05:58:57.505Z,1.00
2017-11-11T06:01:25.847Z,1.43
2017-11-11T06:03:54.150Z,1.23
2017-11-11T06:06:22.518Z,1.17
2017-11-11T06:08:50.861Z,1.23
2017-11-11T06:11:19.309Z,0.97
2017-11-11T06:13:47.624Z,1.00
2017-11-11T06:16:16.168Z,0.90
2017-11-11T06:18:44.486Z,1.20
2017-11-11T06:21:13.623Z,0.90
2017-11-11T06:23:41.993Z,1.20
2017-11-11T06:26:10.380Z,0.97
2017-11-11T06:28:38.784Z,1.03
2017-11-11T06:31:07.120Z,1.07
2017-11-11T06:33:35.461Z,1.13
2017-11-11T06:36:03.817Z,0.90
2017-11-11T06:38:32.172Z,1.20
2017-11-11T06:41:00.527Z,0.80
2017-11-11T06:43:28.851Z,0.90
2017-11-11T06:45:57.230Z,1.00
2017-11-11T06:48:25.562Z,1.30
2017-11-11T06:50:54.702Z,1.43
2017-11-11T06:53:23.087Z,1.70
2017-11-11T06:55:51.435Z,1.20
2017-11-11T06:58:19.815Z,0.93
2017-11-11T07:00:48.152Z,0.60
2017-11-11T07:03:16.495Z,1.07
2017-11-11T07:05:45.487Z,1.20
2017-11-11T07:08:13.793Z,0.97
2017-11-11T07:10:42.720Z,0.80
2017-11-11T07:13:11.103Z,0.60
2017-11-11T07:15:39.738Z,0.80
2017-11-11T07:18:08.712Z,0.80
2017-11-11T07:20:37.015Z,1.00
2017-11-11T07:23:05.394Z,1.40
2017-11-11T07:25:34.491Z,0.97
2017-11-11T07:28:02.876Z,1.00
2017-11-11T07:30:32.820Z,1.90
2017-11-11T07:33:01.234Z,0.87
2017-11-11T07:35:29.602Z,0.90
2017-11-11T07:37:57.920Z,0.90
2017-11-11T07:40:26.301Z,0.60
2017-11-11T07:42:54.770Z,0.70
2017-11-11T07:45:23.832Z,0.70
2017-11-11T07:47:52.159Z,0.93
2017-11-11T07:50:20.538Z,0.60
2017-11-11T07:52:48.914Z,0.77
2017-11-11T07:55:17.269Z,0.60
2017-11-11T07:57:45.643Z,1.20
2017-11-11T08:00:14.004Z,0.60
2017-11-11T08:02:42.445Z,0.80
2017-11-11T08:05:10.787Z,0.83
2017-11-11T08:07:39.188Z,0.73
2017-11-11T08:10:07.640Z,0.80
2017-11-11T08:12:36.017Z,0.57
2017-11-11T08:15:04.184Z,0.60
2017-11-11T08:17:32.551Z,0.70
2017-11-11T08:20:00.925Z,0.80
2017-11-11T08:22:29.240Z,0.90
2017-11-11T08:24:59.504Z,0.60
2017-11-11T08:27:27.723Z,0.60
2017-11-11T08:29:55.914Z,0.53
2017-11-11T08:32:24.097Z,0.60
2017-11-11T08:34:52.350Z,0.70
2017-11-11T08:37:20.543Z,0.70
2017-11-11T08:39:48.718Z,0.80
2017-11-11T08:42:16.896Z,0.93
2017-11-11T08:44:45.498Z,0.70
2017-11-11T08:47:14.023Z,0.90
2017-11-11T08:49:42.214Z,0.77
2017-11-11T08:52:10.596Z,0.70
2017-11-11T08:54:38.992Z,0.70
2017-11-11T08:57:07.339Z,0.97
2017-11-11T08:59:36.003Z,0.90
2017-11-11T09:02:04.508Z,0.87
2017-11-11T09:04:33.099Z,0.70
2017-11-11T09:07:01.427Z,0.90
2017-11-11T09:09:30.199Z,1.13
2017-11-11T09:11:58.616Z,1.27
2017-11-11T09:14:27.140Z,1.73
2017-11-11T09:16:55.502Z,1.00
2017-11-11T09:19:23.903Z,1.37
2017-11-11T09:21:52.281Z,1.00
2017-11-11T09:24:20.618Z,2.20
2017-11-11T09:26:48.992Z,1.20
2017-11-11T09:29:17.375Z,1.10
2017-11-11T09:31:45.748Z,1.40
2017-11-11T09:34:14.847Z,0.93
2017-11-11T09:36:43.318Z,2.07
2017-11-11T09:39:11.724Z,1.17
2017-11-11T09:41:40.070Z,1.50
2017-11-11T09:44:08.463Z,1.10
2017-11-11T09:46:37.804Z,1.00
2017-11-11T09:49:06.137Z,0.90
2017-11-11T09:51:34.325Z,1.13
2017-11-11T09:54:02.530Z,1.07
2017-11-11T09:56:31.780Z,1.10
2017-11-11T09:59:00.129Z,0.90
2017-11-11T10:01:28.522Z,1.03
2017-11-11T10:03:56.869Z,1.10
2017-11-11T10:06:25.256Z,1.20
2017-11-11T10:08:53.613Z,1.50
2017-11-11T10:11:21.961Z,1.50
2017-11-11T10:13:51.205Z,2.00
2017-11-11T10:16:21.198Z,1.20
2017-11-11T10:18:50.313Z,1.67
2017-11-11T10:21:19.343Z,2.60
2017-11-11T10:23:47.786Z,2.60
2017-11-11T10:26:16.214Z,2.40
2017-11-11T10:28:44.387Z,3.27
2017-11-11T10:31:13.592Z,2.63
2017-11-11T10:33:41.931Z,2.23
2017-11-11T10:36:10.996Z,2.40
2017-11-11T10:38:39.435Z,2.03
2017-11-11T10:41:08.572Z,2.17
2017-11-11T10:43:36.912Z,2.30
2017-11-11T10:46:05.272Z,1.80
2017-11-11T10:48:33.656Z,2.20
2017-11-11T10:51:01.980Z,2.50
2017-11-11T10:53:30.332Z,2.90
2017-11-11T10:55:58.688Z,1.87
2017-11-11T10:58:27.023Z,2.60
2017-11-11T11:00:55.396Z,2.30
2017-11-11T11:03:23.536Z,2.53
2017-11-11T11:05:52.704Z,3.23
2017-11-11T11:08:21.582Z,2.73
2017-11-11T11:10:49.962Z,2.57
2017-11-11T11:13:18.347Z,2.93
2017-11-11T11:15:46.674Z,2.50
2017-11-11T11:18:15.809Z,2.53
2017-11-11T11:20:44.171Z,2.20
2017-11-11T11:23:12.483Z,2.30
2017-11-11T11:25:45.113Z,2.73
2017-11-11T11:28:16.844Z,2.90
2017-11-11T11:30:45.190Z,2.30
2017-11-11T11:33:13.660Z,3.53
2017-11-11T11:35:42.001Z,2.37
2017-11-11T11:38:10.359Z,2.87
2017-11-11T11:40:38.783Z,2.63
2017-11-11T11:43:07.148Z,2.23
2017-11-11T11:45:35.554Z,2.70
2017-11-11T11:48:04.117Z,2.37
2017-11-11T11:50:32.527Z,2.47
2017-11-11T11:53:00.984Z,3.20
2017-11-11T11:55:29.387Z,2.80
2017-11-11T11:57:57.732Z,2.30
2017-11-11T12:00:26.144Z,3.30
2017-11-11T12:02:54.552Z,2.50
2017-11-11T12:05:22.946Z,2.60
2017-11-11T12:07:51.277Z,2.90
2017-11-11T12:10:19.626Z,2.13
2017-11-11T12:12:48.143Z,2.20
2017-11-11T12:15:16.537Z,2.00
2017-11-11T12:17:45.672Z,2.07
2017-11-11T12:20:14.056Z,2.00
2017-11-11T12:22:42.472Z,2.30
2017-11-11T12:25:10.852Z,2.03
2017-11-11T12:27:39.198Z,2.67
2017-11-11T12:30:08.862Z,2.30
2017-11-11T12:32:37.131Z,2.20
2017-11-11T12:35:05.456Z,2.10
2017-11-11T12:37:33.661Z,2.30
2017-11-11T12:40:02.146Z,1.97
2017-11-11T12:42:30.488Z,1.90
2017-11-11T12:44:58.867Z,2.07
2017-11-11T12:47:27.428Z,2.27
2017-11-11T12:49:56.676Z,2.00
2017-11-11T12:52:25.759Z,2.30
2017-11-11T12:54:53.963Z,2.23
2017-11-11T12:57:22.174Z,2.23
2017-11-11T12:59:51.352Z,2.60
2017-11-11T13:02:19.700Z,2.03
2017-11-11T13:04:48.078Z,2.10
2017-11-11T13:07:16.413Z,2.20
2017-11-11T13:09:44.796Z,2.47
2017-11-11T13:12:13.929Z,2.30
2017-11-11T13:14:42.278Z,2.03
2017-11-11T13:17:11.452Z,1.97
2017-11-11T13:19:39.809Z,2.00
2017-11-11T13:22:08.163Z,2.10
2017-11-11T13:24:36.363Z,2.07
2017-11-11T13:27:04.805Z,1.90
2017-11-11T13:29:33.126Z,2.30
2017-11-11T13:32:01.603Z,2.33
2017-11-11T13:34:29.952Z,2.10
2017-11-11T13:36:58.325Z,2.07
2017-11-11T13:39:26.652Z,1.70
2017-11-11T13:41:55.049Z,1.40
2017-11-11T13:44:24.462Z,2.07
2017-11-11T13:46:52.636Z,1.17
2017-11-11T13:49:21.069Z,1.70
2017-11-11T13:51:49.467Z,1.90
2017-11-11T13:54:17.823Z,1.50
2017-11-11T13:56:46.211Z,1.30
2017-11-11T13:59:14.582Z,1.60
2017-11-11T14:01:42.904Z,1.70
2017-11-11T14:04:11.461Z,1.60
2017-11-11T14:06:39.853Z,1.80
2017-11-11T14:09:08.959Z,1.67
2017-11-11T14:11:38.193Z,1.60
2017-11-11T14:14:06.557Z,1.30
2017-11-11T14:16:35.682Z,1.50
2017-11-11T14:19:04.190Z,1.70
2017-11-11T14:21:32.647Z,1.43
2017-11-11T14:24:01.148Z,1.30
2017-11-11T14:26:29.522Z,1.30
2017-11-11T14:28:57.887Z,1.60
2017-11-11T14:31:26.986Z,1.20
2017-11-11T14:33:55.359Z,1.20
2017-11-11T14:36:23.792Z,1.37
2017-11-11T14:38:52.113Z,1.30
2017-11-11T14:41:21.191Z,1.63
2017-11-11T14:43:51.068Z,0.93
2017-11-11T14:46:19.440Z,1.53
2017-11-11T14:48:47.788Z,1.43
2017-11-11T14:51:16.209Z,1.23
2017-11-11T14:53:44.534Z,1.17
2017-11-11T14:56:12.860Z,1.40
2017-11-11T14:58:41.320Z,1.27
2017-11-11T15:01:10.292Z,2.37
2017-11-11T15:03:39.260Z,1.00
2017-11-11T15:06:07.585Z,1.30
2017-11-11T15:08:35.960Z,1.50
2017-11-11T15:11:04.404Z,1.00
2017-11-11T15:13:32.596Z,1.20
2017-11-11T15:16:00.893Z,1.03
2017-11-11T15:18:30.196Z,1.40
2017-11-11T15:20:58.677Z,1.40
2017-11-11T15:23:27.982Z,1.20
2017-11-11T15:25:56.460Z,0.97
2017-11-11T15:28:28.418Z,4.00
2017-11-11T15:30:56.907Z,1.07
2017-11-11T15:33:25.285Z,1.60
2017-11-11T15:35:53.658Z,7.00
2017-11-11T15:38:22.028Z,5.77
2017-11-11T15:40:50.380Z,6.60
2017-11-11T15:43:19.608Z,33.83
2017-11-11T15:45:52.478Z,14.33
2017-11-11T15:48:20.959Z,23.30
2017-11-11T15:50:49.327Z,13.83
2017-11-11T15:53:17.700Z,13.03
2017-11-11T15:55:45.984Z,15.83
2017-11-11T15:58:14.469Z,14.07
2017-11-11T16:00:42.742Z,15.30
2017-11-11T16:03:11.057Z,16.17
2017-11-11T16:05:39.290Z,15.10
2017-11-11T16:08:08.207Z,12.70
2017-11-11T16:10:38.718Z,11.87
2017-11-11T16:13:07.702Z,10.70
2017-11-11T16:15:35.920Z,9.50
2017-11-11T16:18:04.276Z,10.17
2017-11-11T16:20:32.666Z,9.67
2017-11-11T16:23:00.908Z,9.00
2017-11-11T16:25:30.056Z,9.00
2017-11-11T16:27:58.455Z,8.00
2017-11-11T16:30:26.843Z,8.93
2017-11-11T16:32:56.749Z,8.43
2017-11-11T16:35:25.071Z,9.33
2017-11-11T16:37:53.433Z,8.83
2017-11-11T16:40:22.682Z,8.00
2017-11-11T16:42:51.017Z,6.50
2017-11-11T16:45:20.216Z,7.67
2017-11-11T16:47:50.054Z,7.10
2017-11-11T16:50:18.205Z,6.80
2017-11-11T16:52:47.361Z,6.63
2017-11-11T16:55:15.719Z,6.37
2017-11-11T16:57:44.107Z,5.93
2017-11-11T17:00:12.466Z,5.63
2017-11-11T17:02:40.811Z,5.43
2017-11-11T17:05:09.935Z,6.63
2017-11-11T17:07:38.852Z,6.10
2017-11-11T17:10:07.197Z,5.40
2017-11-11T17:12:37.637Z,5.23
2017-11-11T17:15:06.425Z,5.40
2017-11-11T17:17:34.753Z,4.80
2017-11-11T17:20:03.156Z,6.73
2017-11-11T17:22:31.349Z,5.13
2017-11-11T17:24:59.749Z,5.23
2017-11-11T17:27:28.086Z,5.10
2017-11-11T17:29:57.223Z,4.97
2017-11-11T17:32:25.465Z,15.33
2017-11-11T17:34:53.774Z,8.83
2017-11-11T17:37:21.906Z,9.87
2017-11-11T17:39:50.820Z,8.70
2017-11-11T17:42:19.223Z,9.13
2017-11-11T17:44:47.345Z,8.07
2017-11-11T17:47:15.542Z,8.47
2017-11-11T17:49:43.691Z,7.70
2017-11-11T17:52:12.970Z,10.93
2017-11-11T17:54:41.322Z,9.27
2017-11-11T17:57:09.633Z,9.90
2017-11-11T17:59:38.004Z,5.60
2017-11-11T18:02:06.300Z,4.70
2017-11-11T18:04:34.667Z,5.03
2017-11-11T18:07:03.096Z,5.20
2017-11-11T18:09:31.403Z,5.63
2017-11-11T18:11:59.692Z,9.53
2017-11-11T18:14:28.046Z,6.40
2017-11-11T18:16:56.378Z,4.90
2017-11-11T18:19:25.463Z,3.77
2017-11-11T18:21:53.805Z,5.07
2017-11-11T18:24:22.129Z,3.80
2017-11-11T18:26:50.461Z,4.43
2017-11-11T18:29:18.885Z,5.30
2017-11-11T18:31:47.255Z,4.70
2017-11-11T18:34:15.548Z,4.47
2017-11-11T18:36:43.902Z,5.00
2017-11-11T18:39:12.403Z,5.80
2017-11-11T18:41:40.758Z,4.73
2017-11-11T18:44:09.037Z,3.40
2017-11-11T18:46:37.343Z,3.43
2017-11-11T18:49:05.693Z,3.13
2017-11-11T18:51:34.049Z,3.07
2017-11-11T18:54:02.362Z,3.20
2017-11-11T18:56:30.676Z,3.47
2017-11-11T18:58:58.991Z,3.70
2017-11-11T19:01:27.420Z,3.13
2017-11-11T19:03:55.555Z,2.73
2017-11-11T19:06:23.893Z,2.90
2017-11-11T19:08:52.224Z,2.80
2017-11-11T19:11:20.372Z,2.83
2017-11-11T19:13:48.671Z,2.80
2017-11-11T19:16:17.628Z,2.90
2017-11-11T19:18:45.941Z,2.47
2017-11-11T19:21:14.273Z,2.60
2017-11-11T19:23:42.676Z,2.20
2017-11-11T19:26:10.991Z,2.43
2017-11-11T19:28:39.338Z,2.57
2017-11-11T19:31:07.725Z,2.27
2017-11-11T19:33:36.812Z,2.53
2017-11-11T19:36:07.443Z,1.90
2017-11-11T19:38:36.279Z,2.53
2017-11-11T19:41:05.402Z,2.10
2017-11-11T19:43:33.753Z,1.80
2017-11-11T19:46:02.088Z,2.40
2017-11-11T19:48:30.461Z,2.50
2017-11-11T19:50:58.914Z,2.23
2017-11-11T19:53:27.260Z,2.10
2017-11-11T19:55:55.578Z,2.67
2017-11-11T19:58:23.927Z,2.10
2017-11-11T20:00:53.045Z,2.20
2017-11-11T20:03:21.373Z,2.50
2017-11-11T20:05:49.742Z,2.00
2017-11-11T20:08:18.281Z,2.10
2017-11-11T20:10:46.589Z,2.27
2017-11-11T20:13:14.935Z,2.60
2017-11-11T20:15:43.247Z,1.97
2017-11-11T20:18:12.414Z,2.00
2017-11-11T20:20:40.740Z,2.60
2017-11-11T20:23:09.093Z,2.10
2017-11-11T20:25:37.422Z,2.17
2017-11-11T20:28:06.777Z,1.80
2017-11-11T20:30:36.114Z,2.20
2017-11-11T20:33:04.660Z,2.10
2017-11-11T20:35:35.901Z,2.03
2017-11-11T20:38:04.217Z,2.07
2017-11-11T20:40:32.539Z,2.03
2017-11-11T20:43:00.876Z,2.57
2017-11-11T20:45:30.030Z,2.17
2017-11-11T20:47:58.329Z,3.60
2017-11-11T20:50:26.517Z,1.50
2017-11-11T20:52:55.211Z,1.40
2017-11-11T20:55:23.460Z,2.03
2017-11-11T20:57:53.318Z,1.80
2017-11-11T21:00:24.197Z,1.90
2017-11-11T21:02:52.654Z,1.70
2017-11-11T21:05:21.950Z,2.07
2017-11-11T21:07:51.155Z,2.00
2017-11-11T21:10:19.971Z,1.60
2017-11-11T21:12:49.652Z,2.00
2017-11-11T21:15:18.682Z,2.13
2017-11-11T21:17:47.051Z,1.50
2017-11-11T21:20:15.528Z,1.80
2017-11-11T21:22:43.883Z,2.13
2017-11-11T21:25:12.290Z,1.80
2017-11-11T21:27:40.435Z,1.60
2017-11-11T21:30:08.571Z,1.60
2017-11-11T21:32:36.895Z,1.50
2017-11-11T21:35:05.189Z,1.80
2017-11-11T21:37:33.521Z,1.30
2017-11-11T21:40:02.670Z,1.53
2017-11-11T21:42:31.017Z,1.40
2017-11-11T21:45:00.108Z,1.40
2017-11-11T21:47:28.599Z,1.63
2017-11-11T21:49:56.947Z,1.43
2017-11-11T21:52:26.104Z,1.43
2017-11-11T21:54:54.959Z,1.37
2017-11-11T21:57:24.064Z,1.47
2017-11-11T21:59:52.424Z,1.30
2017-11-11T22:02:21.581Z,1.13
2017-11-11T22:04:50.038Z,2.00
2017-11-11T22:07:18.396Z,2.17
2017-11-11T22:09:46.740Z,1.40
2017-11-11T22:12:15.268Z,1.57
2017-11-11T22:14:44.495Z,1.37
2017-11-11T22:17:12.967Z,1.70
2017-11-11T22:19:41.326Z,1.10
2017-11-11T22:22:09.831Z,0.90
2017-11-11T22:24:38.167Z,1.23
2017-11-11T22:27:06.537Z,1.50
2017-11-11T22:29:34.829Z,1.37
2017-11-11T22:32:03.647Z,2.03
2017-11-11T22:34:31.846Z,1.27
2017-11-11T22:37:00.220Z,1.90
2017-11-11T22:39:28.523Z,1.20
2017-11-11T22:41:57.058Z,1.30
2017-11-11T22:44:25.354Z,1.40
2017-11-11T22:46:53.684Z,1.60
2017-11-11T22:49:22.796Z,1.30
2017-11-11T22:51:51.118Z,1.10
2017-11-11T22:54:20.219Z,1.00
2017-11-11T22:56:48.615Z,1.67
2017-11-11T22:59:16.957Z,0.80
2017-11-11T23:01:47.252Z,1.50
2017-11-11T23:04:15.560Z,1.40
2017-11-11T23:06:43.907Z,1.20
2017-11-11T23:09:12.246Z,1.30
2017-11-11T23:11:40.562Z,0.90
2017-11-11T23:14:08.906Z,1.20
2017-11-11T23:16:38.009Z,1.00
2017-11-11T23:19:07.128Z,1.20
2017-11-11T23:21:35.301Z,1.67
2017-11-11T23:24:03.652Z,1.20
2017-11-11T23:26:31.991Z,1.03
2017-11-11T23:29:00.347Z,1.00
2017-11-11T23:31:28.690Z,1.00
2017-11-11T23:33:57.812Z,1.10
2017-11-11T23:36:26.235Z,1.80
2017-11-11T23:38:54.596Z,1.33
2017-11-11T23:41:22.956Z,1.20
2017-11-11T23:43:51.304Z,1.10
2017-11-11T23:46:19.703Z,1.03
2017-11-11T23:48:48.824Z,0.97
2017-11-11T23:51:17.217Z,1.27
2017-11-11T23:53:46.154Z,1.10
2017-11-11T23:56:14.820Z,1.20
2017-11-11T23:58:42.969Z,0.83
